Time;durP1;ratioP1;P1;durP2;ratioP2;P2;SDS_P1;SDS_P2;PMS_P1;PMS_P2;Temp;Humidity;BMP_temperature;BMP_pressure;BME280_temperature;BME280_humidity;BME280_pressure;Samples;Min_cycle;Max_cycle;Signal;HPM_P1;HPM_P2
2022/12/28 00:01:15;;;;;;;8.00;4.00;;;6.10;99.90;;;;;;5111246;28;20374;-77
2022/12/28 00:03:42;;;;;;;12.85;4.35;;;6.10;99.90;;;;;;5094330;28;20050;-78
2022/12/28 00:06:08;;;;;;;8.85;4.82;;;6.10;99.90;;;;;;5114665;28;20035;-75
2022/12/28 00:08:34;;;;;;;11.38;4.80;;;6.00;99.90;;;;;;5118571;27;20134;-77
2022/12/28 00:11:02;;;;;;;10.85;5.22;;;6.00;99.90;;;;;;5101557;27;20118;-78
2022/12/28 00:13:32;;;;;;;10.93;3.78;;;6.10;99.90;;;;;;5118663;27;20491;-76
2022/12/28 00:16:05;;;;;;;12.98;4.80;;;6.10;99.90;;;;;;5101407;27;20043;-75
2022/12/28 00:18:33;;;;;;;7.75;3.20;;;6.00;99.90;;;;;;5101412;27;20091;-78
2022/12/28 00:20:59;;;;;;;11.60;4.95;;;6.10;99.90;;;;;;5101308;27;20055;-76
2022/12/28 00:23:26;;;;;;;10.40;4.95;;;6.10;99.90;;;;;;5101507;27;20099;-76
2022/12/28 00:25:52;;;;;;;12.50;5.45;;;6.30;99.90;;;;;;5100917;27;20050;-75
2022/12/28 00:28:18;;;;;;;15.73;6.18;;;6.20;99.90;;;;;;5118349;27;20039;-75
2022/12/28 00:30:44;;;;;;;11.75;5.05;;;6.00;99.90;;;;;;5118329;27;20136;-77
2022/12/28 00:33:09;;;;;;;8.80;5.47;;;6.00;99.90;;;;;;5067690;27;20051;-76
2022/12/28 00:35:35;;;;;;;11.80;5.13;;;6.00;99.90;;;;;;5118395;27;20145;-76
2022/12/28 00:38:01;;;;;;;11.40;5.22;;;6.00;99.90;;;;;;5101117;27;20055;-76
2022/12/28 00:40:26;;;;;;;9.43;5.20;;;6.00;99.90;;;;;;5084416;27;20126;-77
2022/12/28 00:42:52;;;;;;;13.00;5.15;;;6.00;99.90;;;;;;5117853;27;20417;-75
2022/12/28 00:45:18;;;;;;;12.15;4.78;;;6.00;99.90;;;;;;5101102;27;20078;-78
2022/12/28 00:47:43;;;;;;;10.90;5.13;;;6.00;99.90;;;;;;5117726;27;20514;-77
2022/12/28 00:50:09;;;;;;;12.40;5.60;;;6.00;99.90;;;;;;5135893;27;20043;-77
2022/12/28 00:52:35;;;;;;;10.43;5.47;;;6.20;99.90;;;;;;5067467;27;20047;-75
2022/12/28 00:55:01;;;;;;;10.85;5.30;;;6.00;99.90;;;;;;5117593;27;20112;-77
2022/12/28 00:57:27;;;;;;;13.15;5.13;;;6.00;99.90;;;;;;5117857;27;20483;-82
2022/12/28 00:59:52;;;;;;;10.50;5.13;;;6.00;99.90;;;;;;5083759;27;20053;-80
2022/12/28 01:02:18;;;;;;;19.40;6.40;;;6.00;99.90;;;;;;5083973;27;20091;-75
2022/12/28 01:04:44;;;;;;;11.20;5.18;;;6.00;99.90;;;;;;5117615;27;20058;-76
2022/12/28 01:07:11;;;;;;;20.02;6.45;;;6.00;99.90;;;;;;5083168;27;20062;-76
2022/12/28 01:09:37;;;;;;;10.57;5.93;;;6.00;99.90;;;;;;5117650;27;20113;-77
2022/12/28 01:12:02;;;;;;;8.90;5.07;;;5.90;99.90;;;;;;5083538;27;20044;-80
2022/12/28 01:14:28;;;;;;;12.55;6.03;;;6.00;99.90;;;;;;5083749;27;20047;-80
2022/12/28 01:16:54;;;;;;;17.00;6.68;;;6.00;99.90;;;;;;5099526;27;20130;-80
2022/12/28 01:19:21;;;;;;;11.50;4.22;;;6.00;99.90;;;;;;5100538;27;20047;-78
2022/12/28 01:21:48;;;;;;;17.52;6.53;;;6.00;99.90;;;;;;5083592;27;20094;-80
2022/12/28 01:24:14;;;;;;;9.43;5.13;;;6.10;99.90;;;;;;5099736;27;20050;-79
2022/12/28 01:26:40;;;;;;;18.08;6.32;;;6.20;99.90;;;;;;5117259;27;20043;-78
2022/12/28 01:29:06;;;;;;;10.07;5.28;;;6.10;99.90;;;;;;5099789;27;20066;-82
2022/12/28 01:31:32;;;;;;;9.93;5.40;;;6.10;99.90;;;;;;5117253;27;20040;-76
2022/12/28 01:33:58;;;;;;;10.77;5.28;;;6.20;99.90;;;;;;5116996;27;20100;-79
2022/12/28 01:36:35;;;;;;;10.02;4.80;;;6.20;99.90;;;;;;5100118;27;20055;-83
2022/12/28 01:39:04;;;;;;;11.32;5.13;;;6.50;99.90;;;;;;5116815;27;20046;-80
2022/12/28 01:41:31;;;;;;;12.07;4.82;;;6.30;99.90;;;;;;5116995;27;20054;-77
2022/12/28 01:43:56;;;;;;;11.93;6.00;;;6.30;99.90;;;;;;5116609;27;20501;-80
2022/12/28 01:46:28;;;;;;;11.98;5.60;;;6.30;99.90;;;;;;5099891;27;20043;-80
2022/12/28 01:48:57;;;;;;;;;;;6.30;99.90;;;;;;5117131;27;20054;-77
2022/12/28 01:51:25;;;;;;;8.45;5.25;;;6.30;99.90;;;;;;5116872;27;19919;-76
2022/12/28 01:53:53;;;;;;;16.50;5.38;;;6.30;99.90;;;;;;5099897;27;20082;-79
2022/12/28 01:56:20;;;;;;;11.20;5.88;;;6.30;99.90;;;;;;5116445;27;20403;-76
2022/12/28 01:58:47;;;;;;;11.98;6.53;;;6.20;99.90;;;;;;5116832;27;20185;-78
2022/12/28 02:01:12;;;;;;;13.63;6.30;;;6.20;99.90;;;;;;5099421;27;20043;-78
2022/12/28 02:03:38;;;;;;;11.52;6.22;;;6.50;99.90;;;;;;5099477;27;20043;-80
2022/12/28 02:06:10;;;;;;;11.85;5.50;;;6.50;99.90;;;;;;5082396;27;20043;-76
2022/12/28 02:08:42;;;;;;;12.68;6.63;;;6.30;99.90;;;;;;5116572;27;20092;-78
2022/12/28 02:11:12;;;;;;;11.02;6.05;;;6.30;99.90;;;;;;5116170;27;20478;-76
2022/12/28 02:13:39;;;;;;;10.70;5.63;;;6.30;99.90;;;;;;5099338;27;20110;-78
2022/12/28 02:16:05;;;;;;;15.15;7.18;;;6.40;99.90;;;;;;5099269;27;20047;-79
2022/12/28 02:18:31;;;;;;;11.13;7.00;;;6.30;99.90;;;;;;5116333;27;20039;-78
2022/12/28 02:21:18;;;;;;;14.32;6.45;;;6.30;99.90;;;;;;5116369;27;20066;-76
2022/12/28 02:24:02;;;;;;;13.55;6.97;;;6.50;99.90;;;;;;5116056;27;20391;-75
2022/12/28 02:26:28;;;;;;;12.70;7.05;;;6.30;99.90;;;;;;5098860;27;20137;-76
2022/12/28 02:29:05;;;;;;;9.48;5.38;;;6.30;99.90;;;;;;5115626;27;20112;-80
2022/12/28 02:32:02;;;;;;;11.10;6.38;;;7.10;99.90;;;;;;5116184;27;20043;-77
2022/12/28 02:34:51;;;;;;;16.83;6.68;;;6.40;99.90;;;;;;5098716;27;20053;-75
2022/12/28 02:37:51;;;;;;;17.30;6.60;;;6.30;99.90;;;;;;5098649;27;20058;-77
2022/12/28 02:40:23;;;;;;;14.20;5.93;;;6.40;99.90;;;;;;5111448;28;20060;-78
2022/12/28 02:42:52;;;;;;;9.93;5.00;;;6.30;99.90;;;;;;5095207;28;20468;-76
2022/12/28 02:51:27;;;;;;;11.80;6.75;;;6.30;99.90;;;;;;5095089;28;20047;-78
2022/12/28 02:57:31;;;;;;;12.35;5.93;;;6.50;99.90;;;;;;5094927;28;20055;-83
2022/12/28 03:00:09;;;;;;;11.63;6.40;;;6.40;99.90;;;;;;5095077;28;20047;-79
2022/12/28 03:03:14;;;;;;;11.45;6.32;;;6.40;99.90;;;;;;5095315;28;20250;-78
2022/12/28 03:08:39;;;;;;;11.43;5.68;;;6.50;99.90;;;;;;5094440;28;20507;-79
2022/12/28 03:11:09;;;;;;;17.65;8.63;;;6.50;99.90;;;;;;5078554;28;20055;-82
2022/12/28 03:13:47;;;;;;;14.43;7.68;;;6.50;99.90;;;;;;5078254;28;20059;-82
2022/12/28 03:16:25;;;;;;;13.60;7.38;;;6.40;99.90;;;;;;5094948;28;20043;-79
2022/12/28 03:33:04;;;;;;;12.43;6.38;;;6.50;99.90;;;;;;5095349;28;20192;-81
2022/12/28 03:35:48;;;;;;;13.30;6.40;;;6.50;99.90;;;;;;5094753;28;20040;-78
2022/12/28 03:38:26;;;;;;;11.00;5.50;;;6.50;99.90;;;;;;5095131;28;20403;-78
2022/12/28 03:41:06;;;;;;;11.48;7.07;;;6.70;99.90;;;;;;5099142;28;20043;-80
2022/12/28 03:43:44;;;;;;;12.82;6.45;;;6.60;99.90;;;;;;5098755;28;20054;-77
2022/12/28 03:46:32;;;;;;;11.55;6.03;;;6.70;99.90;;;;;;5098836;28;20086;-78
2022/12/28 03:48:59;;;;;;;14.07;6.35;;;6.80;99.90;;;;;;5098984;28;20487;-77
2022/12/28 03:51:28;;;;;;;13.82;7.78;;;6.70;99.90;;;;;;5098544;28;20045;-77
2022/12/28 03:53:54;;;;;;;13.85;6.53;;;6.70;99.90;;;;;;5098735;28;20043;-77
2022/12/28 03:56:23;;;;;;;13.35;7.30;;;6.90;99.90;;;;;;5098617;28;20051;-76
2022/12/28 03:58:49;;;;;;;11.32;6.28;;;6.80;99.90;;;;;;5081801;28;20044;-79
2022/12/28 04:01:15;;;;;;;12.02;7.10;;;6.80;99.90;;;;;;5098625;28;20132;-77
2022/12/28 04:03:41;;;;;;;10.90;5.70;;;6.80;99.90;;;;;;5098455;28;20079;-80
2022/12/28 04:06:10;;;;;;;12.63;6.82;;;6.90;99.90;;;;;;5065079;28;20125;-79
2022/12/28 04:08:36;;;;;;;14.13;6.95;;;7.00;99.90;;;;;;5081273;28;20055;-78
2022/12/28 04:11:02;;;;;;;13.70;6.18;;;7.00;99.90;;;;;;5081529;28;20042;-77
2022/12/28 04:13:32;;;;;;;12.45;7.00;;;7.00;99.90;;;;;;5081065;28;20054;-77
2022/12/28 04:16:03;;;;;;;11.68;6.43;;;7.00;99.90;;;;;;5098254;28;20055;-77
2022/12/28 04:18:31;;;;;;;12.50;7.05;;;7.00;99.90;;;;;;5104136;28;20050;-79
2022/12/28 04:20:57;;;;;;;15.13;7.32;;;7.10;99.90;;;;;;5081353;28;20044;-75
2022/12/28 04:23:23;;;;;;;9.82;4.82;;;7.10;99.90;;;;;;5081177;28;20092;-78
2022/12/28 04:26:18;;;;;;;8.38;4.95;;;7.10;99.90;;;;;;5081083;28;20501;-76
2022/12/28 04:28:44;;;;;;;12.32;6.72;;;7.20;99.90;;;;;;5080468;28;20052;-76
2022/12/28 04:31:12;;;;;;;11.20;6.50;;;7.20;99.90;;;;;;5081266;28;20054;-79
2022/12/28 04:33:38;;;;;;;10.90;5.85;;;7.20;99.90;;;;;;5064242;28;20582;-80
2022/12/28 04:36:13;;;;;;;12.43;6.60;;;7.20;99.90;;;;;;5097939;28;20047;-76
2022/12/28 04:38:39;;;;;;;8.32;5.20;;;7.30;99.90;;;;;;5080761;28;20143;-77
2022/12/28 04:41:06;;;;;;;12.32;6.78;;;7.20;99.90;;;;;;5064226;28;20078;-78
2022/12/28 04:43:32;;;;;;;11.15;6.20;;;7.20;99.90;;;;;;5080620;28;20044;-76
2022/12/28 04:46:12;;;;;;;9.07;5.03;;;7.30;99.90;;;;;;5097601;28;20483;-77
2022/12/28 04:48:38;;;;;;;11.57;5.78;;;7.40;99.90;;;;;;5097324;28;20387;-76
2022/12/28 04:51:19;;;;;;;8.20;4.55;;;7.40;99.90;;;;;;5096740;28;20055;-78
2022/12/28 04:53:45;;;;;;;7.95;4.20;;;7.40;99.90;;;;;;5097451;28;20103;-77
2022/12/28 04:56:12;;;;;;;10.65;5.25;;;7.50;99.90;;;;;;5080540;28;20039;-78
2022/12/28 04:58:38;;;;;;;8.30;5.30;;;7.40;99.90;;;;;;5063684;28;20139;-77
2022/12/28 05:01:24;;;;;;;9.27;4.97;;;7.50;99.90;;;;;;5097445;28;20493;-79
2022/12/28 05:03:52;;;;;;;8.38;4.45;;;7.40;99.90;;;;;;5080409;28;20043;-78
2022/12/28 05:06:20;;;;;;;7.43;4.50;;;7.50;99.90;;;;;;5080059;28;20529;-80
2022/12/28 05:08:46;;;;;;;9.30;4.53;;;7.60;99.90;;;;;;5080390;28;20062;-78
2022/12/28 05:11:15;;;;;;;7.35;4.47;;;7.50;99.90;;;;;;5063788;28;20457;-76
2022/12/28 05:13:40;;;;;;;6.50;4.40;;;7.60;99.90;;;;;;5080229;28;20386;-77
2022/12/28 05:16:10;;;;;;;9.43;4.75;;;7.60;99.90;;;;;;5097093;28;20047;-75
2022/12/28 05:18:36;;;;;;;5.60;3.58;;;7.60;99.90;;;;;;5096731;28;20097;-76
2022/12/28 05:21:07;;;;;;;7.88;4.68;;;7.70;99.90;;;;;;5096904;28;20506;-75
2022/12/28 05:23:36;;;;;;;5.93;3.85;;;7.60;99.90;;;;;;5096924;28;20047;-77
2022/12/28 05:26:02;;;;;;;8.40;5.13;;;7.60;99.90;;;;;;5080024;28;20051;-74
2022/12/28 05:28:28;;;;;;;8.77;4.72;;;7.70;99.90;;;;;;5080028;28;20098;-76
2022/12/28 05:30:59;;;;;;;7.32;3.33;;;7.70;99.90;;;;;;5096366;28;20456;-80
2022/12/28 05:33:25;;;;;;;8.95;5.35;;;7.70;99.90;;;;;;5117304;27;20043;-76
2022/12/28 05:35:51;;;;;;;4.60;3.08;;;7.80;99.90;;;;;;5098592;27;20100;-75
2022/12/28 05:38:17;;;;;;;8.32;5.22;;;7.70;99.90;;;;;;5117248;27;20039;-77
2022/12/28 05:40:42;;;;;;;4.88;3.60;;;7.80;99.90;;;;;;5082830;27;20068;-76
2022/12/28 05:43:09;;;;;;;8.88;4.80;;;7.70;99.90;;;;;;5100133;27;20134;-75
2022/12/28 05:45:35;;;;;;;8.48;5.03;;;7.80;99.90;;;;;;5099810;27;20047;-80
2022/12/28 05:48:00;;;;;;;7.70;5.15;;;7.90;99.90;;;;;;5066093;27;20512;-77
2022/12/28 05:50:26;;;;;;;8.63;5.15;;;7.80;99.90;;;;;;5099882;27;20050;-78
2022/12/28 05:52:52;;;;;;;8.35;5.07;;;7.90;99.90;;;;;;5099640;27;20081;-77
2022/12/28 05:55:18;;;;;;;7.03;4.50;;;8.00;99.90;;;;;;5099764;27;20107;-78
2022/12/28 05:57:43;;;;;;;8.40;5.47;;;8.00;99.90;;;;;;5099560;27;20047;-76
2022/12/28 06:00:09;;;;;;;9.25;5.35;;;8.00;99.90;;;;;;5134882;27;20062;-77
2022/12/28 06:02:35;;;;;;;9.32;5.20;;;8.10;99.90;;;;;;5082461;27;20103;-76
2022/12/28 06:05:01;;;;;;;7.88;4.95;;;8.00;99.90;;;;;;5116537;27;20130;-75
2022/12/28 06:07:26;;;;;;;7.60;4.68;;;8.10;99.90;;;;;;5098925;27;20047;-76
2022/12/28 06:09:52;;;;;;;12.02;6.00;;;8.20;99.90;;;;;;5065517;27;20532;-76
2022/12/28 06:12:18;;;;;;;11.82;6.78;;;8.10;99.90;;;;;;5116446;27;20050;-76
2022/12/28 06:14:43;;;;;;;10.73;6.25;;;8.30;99.90;;;;;;5099099;27;20043;-88
2022/12/28 06:17:09;;;;;;;8.20;5.57;;;8.20;99.90;;;;;;5099612;27;20050;-77
2022/12/28 06:19:35;;;;;;;7.75;5.00;;;8.20;99.90;;;;;;5098727;27;20467;-78
2022/12/28 06:22:00;;;;;;;6.07;4.13;;;8.20;99.90;;;;;;5099348;27;20043;-78
2022/12/28 06:24:26;;;;;;;8.55;5.25;;;8.20;99.90;;;;;;5099324;27;20457;-77
2022/12/28 06:26:52;;;;;;;8.40;5.50;;;8.30;99.90;;;;;;5115786;27;20100;-77
2022/12/28 06:29:17;;;;;;;13.65;7.40;;;8.40;99.90;;;;;;5096449;27;20161;-75
2022/12/28 06:31:49;;;;;;;15.82;8.98;;;8.40;99.90;;;;;;5096660;27;20047;-77
2022/12/28 06:34:16;;;;;;;16.30;8.75;;;8.50;99.90;;;;;;4760684;27;10000080;-78
2022/12/28 06:36:44;;;;;;;16.00;9.35;;;8.60;99.90;;;;;;5079625;27;20403;-77
2022/12/28 06:39:12;;;;;;;9.98;5.72;;;8.50;99.90;;;;;;5096734;27;20039;-76
2022/12/28 06:41:38;;;;;;;15.07;7.68;;;8.50;99.90;;;;;;5112791;27;20156;-79
2022/12/28 06:44:06;;;;;;;10.23;6.85;;;8.50;99.90;;;;;;5096503;27;20069;-77
2022/12/28 06:46:31;;;;;;;11.88;7.43;;;8.50;99.90;;;;;;5096350;27;20047;-78
2022/12/28 06:48:58;;;;;;;10.63;6.55;;;8.70;99.90;;;;;;5079563;27;20489;-79
2022/12/28 06:51:26;;;;;;;11.43;7.03;;;8.70;99.90;;;;;;5113482;27;20064;-77
2022/12/28 06:53:53;;;;;;;13.15;8.13;;;8.60;99.90;;;;;;5112615;27;20494;-76
2022/12/28 06:56:24;;;;;;;11.25;7.28;;;8.70;99.90;;;;;;5096071;27;20054;-75
2022/12/28 06:58:51;;;;;;;14.80;8.60;;;8.80;99.90;;;;;;5096283;27;20368;-77
2022/12/28 07:01:18;;;;;;;13.90;7.60;;;8.60;99.90;;;;;;5096546;27;20483;-76
2022/12/28 07:03:46;;;;;;;10.95;6.65;;;8.80;99.90;;;;;;5131199;27;20051;-76
2022/12/28 07:06:14;;;;;;;8.50;5.07;;;8.80;99.90;;;;;;5095122;27;20078;-74
2022/12/28 07:08:40;;;;;;;11.10;6.88;;;8.70;99.90;;;;;;5096372;27;20047;-77
2022/12/28 07:11:12;;;;;;;9.63;5.75;;;8.90;99.90;;;;;;5095291;27;20475;-79
2022/12/28 07:13:38;;;;;;;8.50;5.53;;;8.90;99.90;;;;;;5112879;27;20047;-76
2022/12/28 07:16:07;;;;;;;11.95;6.80;;;8.80;99.90;;;;;;5095615;28;20122;-79
2022/12/28 07:18:33;;;;;;;13.32;8.30;;;9.00;99.90;;;;;;5113111;27;20051;-77
2022/12/28 07:21:01;;;;;;;14.13;7.70;;;9.00;99.90;;;;;;5095976;28;20126;-78
2022/12/28 07:23:29;;;;;;;15.50;7.07;;;8.90;99.90;;;;;;5112962;28;20054;-79
2022/12/28 07:25:56;;;;;;;8.98;5.88;;;9.00;99.90;;;;;;5095774;28;20081;-77
2022/12/28 07:28:22;;;;;;;13.65;8.00;;;8.90;99.90;;;;;;5095501;28;20051;-76
2022/12/28 07:30:47;;;;;;;12.13;6.93;;;9.10;99.90;;;;;;5112823;28;20108;-78
2022/12/28 07:33:13;;;;;;;17.17;8.85;;;9.10;99.90;;;;;;5112704;28;20078;-78
2022/12/28 07:35:39;;;;;;;13.38;7.78;;;9.10;99.90;;;;;;5079170;28;20080;-81
2022/12/28 07:38:04;;;;;;;8.40;5.18;;;9.10;99.90;;;;;;5078920;28;20129;-78
2022/12/28 07:40:30;;;;;;;15.52;8.65;;;9.10;99.90;;;;;;5112387;28;20047;-78
2022/12/28 07:42:58;;;;;;;14.27;8.60;;;9.20;99.90;;;;;;5095659;28;20164;-77
2022/12/28 07:45:24;;;;;;;15.00;8.90;;;9.20;99.90;;;;;;5112438;28;20054;-76
2022/12/28 07:47:50;;;;;;;15.55;8.40;;;9.00;99.90;;;;;;5112169;28;20039;-75
2022/12/28 07:50:15;;;;;;;14.93;9.52;;;9.10;99.90;;;;;;5074587;28;20051;-76
2022/12/28 07:52:41;;;;;;;14.15;8.20;;;9.20;99.90;;;;;;5091918;28;20396;-77
2022/12/28 07:55:07;;;;;;;17.23;9.50;;;9.20;99.90;;;;;;5092088;28;20055;-78
2022/12/28 07:57:33;;;;;;;19.58;10.63;;;9.20;99.90;;;;;;5058843;28;20077;-76
2022/12/28 07:59:59;;;;;;;19.15;8.90;;;9.30;99.90;;;;;;5100233;28;20501;-76
2022/12/28 08:02:25;;;;;;;13.80;7.25;;;9.30;99.90;;;;;;5111709;28;20047;-77
2022/12/28 08:04:50;;;;;;;8.05;5.10;;;9.40;99.90;;;;;;5111170;28;20047;-77
2022/12/28 08:07:16;;;;;;;19.58;10.10;;;9.30;99.90;;;;;;5094252;28;20070;-76
2022/12/28 08:09:42;;;;;;;18.75;11.18;;;9.40;99.90;;;;;;5111679;28;20701;-77
2022/12/28 08:12:07;;;;;;;13.57;7.72;;;9.50;99.90;;;;;;5111012;28;20051;-76
2022/12/28 08:14:33;;;;;;;14.55;9.02;;;9.50;99.90;;;;;;5111627;28;20051;-76
2022/12/28 08:16:59;;;;;;;20.10;10.43;;;9.40;99.90;;;;;;5111178;28;20047;-75
2022/12/28 08:19:24;;;;;;;19.67;11.75;;;9.50;99.90;;;;;;5111282;28;20053;-77
2022/12/28 08:21:50;;;;;;;15.13;8.00;;;9.50;99.90;;;;;;5111584;28;20043;-77
2022/12/28 08:24:18;;;;;;;16.73;9.35;;;9.50;99.90;;;;;;5094749;27;20047;-77
2022/12/28 08:26:45;;;;;;;20.77;10.88;;;9.60;99.90;;;;;;5107056;28;20048;-79
2022/12/28 08:29:16;;;;;;;17.02;8.82;;;9.40;99.90;;;;;;5077998;28;20437;-79
2022/12/28 08:31:43;;;;;;;15.38;8.40;;;9.50;99.90;;;;;;5095587;28;20713;-79
2022/12/28 08:34:13;;;;;;;18.20;10.55;;;9.50;99.90;;;;;;5109098;27;20487;-77
2022/12/28 08:36:39;;;;;;;14.13;8.73;;;9.60;99.90;;;;;;5116056;27;20047;-79
2022/12/28 08:39:05;;;;;;;16.75;10.07;;;9.60;99.90;;;;;;5115807;27;20047;-76
2022/12/28 08:41:31;;;;;;;17.80;10.43;;;9.60;99.90;;;;;;5098246;27;20398;-81
2022/12/28 08:43:57;;;;;;;12.65;7.05;;;9.50;99.90;;;;;;5098555;27;20055;-77
2022/12/28 08:46:25;;;;;;;14.18;8.85;;;9.70;99.90;;;;;;5098793;27;20039;-78
2022/12/28 08:48:53;;;;;;;18.27;10.45;;;9.60;99.90;;;;;;5115761;27;20047;-77
2022/12/28 08:51:24;;;;;;;17.48;9.23;;;9.60;99.90;;;;;;5115581;27;20054;-77
2022/12/28 08:53:51;;;;;;;15.57;8.55;;;9.70;99.90;;;;;;5115156;27;20058;-78
2022/12/28 08:56:20;;;;;;;17.92;9.52;;;9.60;99.90;;;;;;5115470;27;20066;-76
2022/12/28 08:58:47;;;;;;;17.98;10.02;;;9.80;99.90;;;;;;5098519;27;20084;-77
2022/12/28 09:01:18;;;;;;;18.10;9.30;;;9.60;99.90;;;;;;5115489;27;20085;-78
2022/12/28 09:03:45;;;;;;;;;;;9.80;99.90;;;;;;5115937;27;20047;-77
2022/12/28 09:06:19;;;;;;;16.27;9.18;;;9.60;99.90;;;;;;5097456;27;19924;-79
2022/12/28 09:08:49;;;;;;;8.20;5.10;;;9.40;99.90;;;;;;5098543;27;20134;-80
2022/12/28 09:11:15;;;;;;;18.70;9.88;;;9.60;99.90;;;;;;5115231;27;20069;-78
2022/12/28 09:13:41;;;;;;;19.77;10.02;;;9.60;99.90;;;;;;5098386;27;20043;-77
2022/12/28 09:16:09;;;;;;;15.82;9.45;;;9.70;99.90;;;;;;5097778;27;20035;-77
2022/12/28 09:18:36;;;;;;;14.75;7.72;;;9.70;99.90;;;;;;5098315;27;20083;-77
2022/12/28 09:21:12;;;;;;;11.38;6.50;;;9.70;99.90;;;;;;5115188;27;20039;-77
2022/12/28 09:23:38;;;;;;;11.63;7.30;;;9.70;99.90;;;;;;5115141;27;20404;-76
2022/12/28 09:26:19;;;;;;;12.23;6.78;;;9.70;99.90;;;;;;5080975;27;20061;-77
2022/12/28 09:28:46;;;;;;;9.93;5.13;;;9.60;99.90;;;;;;5112014;27;20100;-76
2022/12/28 09:31:13;;;;;;;9.77;5.85;;;9.60;99.90;;;;;;5094344;28;20171;-79
2022/12/28 09:36:23;;;;;;;13.50;6.65;;;9.60;99.90;;;;;;5093852;28;20090;-77
2022/12/28 09:38:50;;;;;;;11.75;6.65;;;9.70;99.90;;;;;;5071641;27;20049;-76
2022/12/28 09:41:24;;;;;;;10.73;5.45;;;9.70;99.90;;;;;;5130300;27;20042;-76
2022/12/28 09:43:55;;;;;;;10.80;5.72;;;9.70;99.90;;;;;;5085697;27;20476;-76
2022/12/28 09:46:21;;;;;;;;;;;9.60;99.90;;;;;;5125789;27;20376;-77
2022/12/28 09:48:55;;;;;;;12.73;5.88;;;9.70;99.90;;;;;;5075781;28;19930;-77
2022/12/28 09:51:27;;;;;;;15.45;7.40;;;9.70;99.90;;;;;;5107820;27;20137;-77
2022/12/28 09:53:53;;;;;;;10.48;5.65;;;9.70;99.90;;;;;;5114413;27;20711;-77
2022/12/28 09:56:34;;;;;;;18.02;8.35;;;9.80;99.90;;;;;;5114187;27;20076;-77
2022/12/28 09:59:02;;;;;;;13.07;7.72;;;9.80;99.90;;;;;;5114280;27;20088;-77
2022/12/28 10:01:28;;;;;;;12.27;6.75;;;9.70;99.90;;;;;;5114074;27;20043;-77
2022/12/28 10:03:55;;;;;;;11.77;6.68;;;9.80;99.90;;;;;;5113853;27;20049;-77
2022/12/28 10:06:25;;;;;;;17.85;9.13;;;9.90;99.90;;;;;;5113558;27;20525;-77
2022/12/28 10:08:53;;;;;;;15.48;7.65;;;9.90;99.90;;;;;;5114330;27;20047;-77
2022/12/28 10:11:24;;;;;;;12.40;4.88;;;9.80;99.90;;;;;;5113541;27;20126;-77
2022/12/28 10:13:56;;;;;;;11.50;6.03;;;10.00;99.90;;;;;;5114007;27;20108;-77
2022/12/28 10:16:24;;;;;;;11.43;5.80;;;9.80;99.90;;;;;;5113323;27;20058;-77
2022/12/28 10:18:50;;;;;;;10.48;5.78;;;10.00;99.90;;;;;;5113908;27;20042;-77
2022/12/28 10:21:18;;;;;;;9.57;5.20;;;9.90;99.90;;;;;;5096642;27;20647;-76
2022/12/28 10:23:47;;;;;;;11.40;5.65;;;9.80;99.90;;;;;;5113929;27;20039;-78
2022/12/28 10:26:19;;;;;;;10.57;5.50;;;9.80;99.90;;;;;;5113679;27;20130;-78
2022/12/28 10:28:46;;;;;;;;;;;9.90;99.90;;;;;;5096898;27;20426;-77
2022/12/28 10:31:13;;;;;;;9.75;5.38;;;10.00;99.90;;;;;;5096543;27;19923;-77
2022/12/28 10:33:41;;;;;;;10.05;5.07;;;9.90;99.90;;;;;;5096816;27;20368;-78
2022/12/28 10:36:12;;;;;;;11.00;5.55;;;9.90;99.90;;;;;;5113768;27;20081;-76
2022/12/28 10:38:42;;;;;;;13.65;6.28;;;10.00;99.90;;;;;;5096537;27;20553;-77
2022/12/28 10:41:12;;;;;;;12.40;6.53;;;10.10;99.90;;;;;;5096292;27;20091;-76
2022/12/28 10:43:45;;;;;;;15.25;7.53;;;10.10;99.90;;;;;;5113670;27;20046;-79
2022/12/28 10:46:20;;;;;;;13.63;7.72;;;10.10;99.90;;;;;;5113411;27;20046;-78
2022/12/28 10:48:51;;;;;;;13.40;5.90;;;10.10;99.90;;;;;;5112976;27;20108;-77
2022/12/28 10:51:25;;;;;;;10.18;6.22;;;10.00;99.90;;;;;;5096561;27;20050;-78
2022/12/28 10:53:56;;;;;;;12.20;7.32;;;10.10;99.90;;;;;;5096114;27;20092;-77
2022/12/28 10:56:29;;;;;;;11.43;6.50;;;10.20;99.90;;;;;;5113193;27;20051;-79
2022/12/28 10:59:11;;;;;;;8.82;6.13;;;10.00;99.90;;;;;;5113551;27;20051;-77
2022/12/28 11:01:38;;;;;;;;;;;10.20;99.90;;;;;;5096556;27;20055;-79
2022/12/28 11:04:25;;;;;;;8.70;4.57;;;10.10;99.90;;;;;;5112520;27;20002;-79
2022/12/28 11:06:51;;;;;;;8.63;5.20;;;10.10;99.90;;;;;;5112010;27;20047;-78
2022/12/28 11:09:20;;;;;;;12.65;6.55;;;10.20;99.90;;;;;;5131265;27;20043;-78
2022/12/28 11:11:48;;;;;;;8.57;5.65;;;10.20;99.90;;;;;;5113349;28;20491;-77
2022/12/28 11:14:25;;;;;;;9.02;5.25;;;10.30;99.90;;;;;;5113244;28;20082;-80
2022/12/28 11:16:52;;;;;;;5.93;3.67;;;10.10;99.90;;;;;;5112852;28;20072;-78
2022/12/28 11:19:18;;;;;;;7.95;4.22;;;10.20;99.90;;;;;;5112938;27;20145;-78
2022/12/28 11:21:44;;;;;;;9.57;6.00;;;10.20;99.90;;;;;;5095059;28;20053;-76
2022/12/28 11:24:15;;;;;;;8.52;4.25;;;10.10;99.90;;;;;;5096232;28;20504;-76
2022/12/28 11:26:44;;;;;;;8.13;5.63;;;10.10;99.90;;;;;;5096204;28;20070;-77
2022/12/28 11:29:12;;;;;;;10.48;5.80;;;10.20;99.90;;;;;;5112326;28;20039;-76
2022/12/28 11:31:53;;;;;;;8.20;5.32;;;10.10;99.90;;;;;;5112966;28;20050;-79
2022/12/28 11:34:23;;;;;;;9.88;6.13;;;10.10;99.90;;;;;;5095795;28;20054;-76
2022/12/28 11:36:49;;;;;;;7.05;4.57;;;10.10;99.90;;;;;;5112765;28;20051;-79
2022/12/28 11:39:24;;;;;;;8.27;4.72;;;10.20;99.90;;;;;;5095109;28;20061;-78
2022/12/28 11:41:51;;;;;;;7.85;5.40;;;10.10;99.90;;;;;;5097965;28;20047;-78
2022/12/28 11:44:47;;;;;;;9.32;5.57;;;10.20;99.90;;;;;;5093705;28;20046;-77
2022/12/28 11:47:25;;;;;;;7.05;4.32;;;10.20;99.90;;;;;;5077289;28;20126;-78
2022/12/28 11:49:52;;;;;;;8.00;4.47;;;10.10;99.90;;;;;;5077853;28;20043;-77
2022/12/28 11:52:36;;;;;;;6.70;3.70;;;10.10;99.90;;;;;;5078179;28;20051;-78
2022/12/28 11:55:22;;;;;;;6.43;3.63;;;10.20;99.90;;;;;;5094857;28;20450;-77
2022/12/28 11:57:48;;;;;;;6.18;3.83;;;10.10;99.90;;;;;;5094240;28;20108;-76
2022/12/28 12:00:20;;;;;;;6.70;3.60;;;10.30;99.90;;;;;;5079956;28;20044;-76
2022/12/28 12:02:49;;;;;;;;;;;10.10;99.90;;;;;;5099090;28;20055;-76
2022/12/28 12:05:34;;;;;;;3.28;2.20;;;10.20;99.90;;;;;;5081714;28;19919;-80
2022/12/28 12:08:01;;;;;;;4.90;3.30;;;10.10;99.90;;;;;;5097865;28;20055;-77
2022/12/28 12:10:32;;;;;;;3.53;2.17;;;10.10;99.90;;;;;;5064507;28;20051;-77
2022/12/28 12:12:59;;;;;;;4.75;2.70;;;10.10;99.90;;;;;;5098541;28;20100;-78
2022/12/28 12:15:41;;;;;;;3.88;2.65;;;10.20;99.90;;;;;;5098284;28;20079;-77
2022/12/28 12:18:17;;;;;;;2.83;1.92;;;10.10;99.90;;;;;;5098455;28;20051;-78
2022/12/28 12:21:01;;;;;;;3.80;2.47;;;10.20;99.90;;;;;;5098173;28;20087;-78
2022/12/28 12:23:47;;;;;;;3.55;2.40;;;10.10;99.90;;;;;;5098088;28;20050;-78
2022/12/28 12:26:29;;;;;;;3.72;2.20;;;10.10;99.90;;;;;;5097844;28;20040;-79
2022/12/28 12:29:03;;;;;;;4.50;2.60;;;10.20;99.90;;;;;;5081116;28;20046;-76
2022/12/28 12:31:42;;;;;;;4.28;2.58;;;10.00;99.90;;;;;;5097707;28;20051;-78
2022/12/28 12:34:27;;;;;;;3.30;2.50;;;10.00;99.90;;;;;;5081242;28;20043;-77
2022/12/28 12:37:14;;;;;;;3.83;2.28;;;10.10;99.90;;;;;;5081170;28;20047;-78
2022/12/28 12:40:03;;;;;;;4.60;3.08;;;10.00;99.90;;;;;;5080842;28;20043;-77
2022/12/28 12:43:00;;;;;;;4.03;2.58;;;10.10;99.90;;;;;;5080897;28;20051;-76
2022/12/28 12:45:51;;;;;;;3.75;2.42;;;10.20;99.90;;;;;;5081153;28;20044;-78
2022/12/28 12:48:50;;;;;;;5.47;3.23;;;10.10;99.90;;;;;;5080573;28;20096;-76
2022/12/28 12:51:30;;;;;;;4.53;3.10;;;10.20;99.90;;;;;;5097491;28;20059;-76
2022/12/28 12:54:19;;;;;;;3.63;2.55;;;10.10;99.90;;;;;;5097785;28;20089;-78
2022/12/28 12:57:19;;;;;;;5.82;3.25;;;10.20;99.90;;;;;;5097553;28;20471;-77
2022/12/28 12:59:57;;;;;;;5.72;3.83;;;10.00;99.90;;;;;;5028815;28;20062;-77
2022/12/28 13:03:01;;;;;;;5.38;2.78;;;10.10;99.90;;;;;;5097573;28;20035;-76
2022/12/28 13:05:28;;;;;;;4.45;2.72;;;10.20;99.90;;;;;;5097430;28;20062;-77
2022/12/28 13:07:57;;;;;;;3.53;2.40;;;10.00;99.90;;;;;;5079927;28;20048;-77
2022/12/28 13:10:36;;;;;;;4.25;2.88;;;10.20;99.90;;;;;;5080618;28;20054;-77
2022/12/28 13:13:03;;;;;;;4.10;2.65;;;10.10;99.90;;;;;;5096848;28;20134;-76
2022/12/28 13:15:30;;;;;;;3.92;2.47;;;10.00;99.90;;;;;;5097224;28;20546;-76
2022/12/28 13:18:04;;;;;;;4.13;2.50;;;10.10;99.90;;;;;;5063550;28;20039;-77
2022/12/28 13:20:31;;;;;;;3.15;2.40;;;10.10;99.90;;;;;;5097044;28;20123;-77
2022/12/28 13:22:57;;;;;;;4.15;2.90;;;10.10;99.90;;;;;;5097078;28;20054;-77
2022/12/28 13:25:31;;;;;;;4.40;2.75;;;10.10;99.90;;;;;;5097022;28;20048;-77
2022/12/28 13:27:59;;;;;;;3.90;2.75;;;10.10;99.90;;;;;;5079870;28;20047;-78
2022/12/28 13:30:26;;;;;;;4.57;2.70;;;10.00;99.90;;;;;;5097037;28;20052;-76
2022/12/28 13:33:03;;;;;;;4.13;2.80;;;10.00;99.90;;;;;;5079866;28;20441;-77
2022/12/28 13:35:31;;;;;;;2.75;2.08;;;10.10;99.90;;;;;;5080127;28;20039;-77